createdAt,value
2022-12-24T00:03:10.562Z,100764.69
2022-12-24T00:08:09.448Z,100766.41
2022-12-24T00:13:08.344Z,100757.72
2022-12-24T00:18:07.195Z,100760.28
2022-12-24T00:23:07.354Z,100752.47
2022-12-24T00:28:06.415Z,100757.63
2022-12-24T00:33:05.180Z,100754.19
2022-12-24T00:38:04.647Z,100752.44
2022-12-24T00:43:08.419Z,100751.56
2022-12-24T00:48:07.144Z,100762.50
2022-12-24T00:53:05.907Z,100754.25
2022-12-24T00:58:06.172Z,100765.53
2022-12-24T01:03:05.141Z,100764.69
2022-12-24T01:08:03.984Z,100743.91
2022-12-24T01:13:03.805Z,100744.78
2022-12-24T01:18:03.986Z,100751.75
2022-12-24T01:23:02.905Z,100740.53
2022-12-24T01:28:01.717Z,100738.81
2022-12-24T01:33:00.521Z,100746.63
2022-12-24T01:38:00.775Z,100754.47
2022-12-24T01:43:17.110Z,100755.44
2022-12-24T01:48:31.328Z,100737.28
2022-12-24T01:53:33.274Z,100729.63
2022-12-24T01:58:33.800Z,100740.00
2022-12-24T02:03:32.662Z,100715.63
2022-12-24T02:08:41.050Z,100709.50
2022-12-24T02:13:40.315Z,100705.97
2022-12-24T02:18:47.727Z,100705.19
2022-12-24T02:24:10.902Z,100702.25
2022-12-24T02:29:28.659Z,100702.78
2022-12-24T02:34:34.385Z,100707.63
2022-12-24T02:39:41.923Z,100694.34
2022-12-24T02:44:46.373Z,100690.81
2022-12-24T02:49:48.946Z,100698.31
2022-12-24T02:54:47.763Z,100701.75
2022-12-24T03:00:16.358Z,100700.91
2022-12-24T03:05:26.448Z,100702.13
2022-12-24T03:10:32.263Z,100715.16
2022-12-24T03:15:33.428Z,100707.44
2022-12-24T03:20:39.394Z,100721.25
2022-12-24T03:25:42.436Z,100714.25
2022-12-24T03:30:42.331Z,100713.44
2022-12-24T03:35:42.525Z,100712.75
2022-12-24T03:40:41.320Z,100705.25
2022-12-24T03:45:40.347Z,100715.88
2022-12-24T03:50:39.123Z,100713.53
2022-12-24T03:55:39.889Z,100710.41
2022-12-24T04:00:38.710Z,100709.66
2022-12-24T04:05:37.521Z,100727.13
2022-12-24T04:10:36.289Z,100730.72
2022-12-24T04:15:36.560Z,100729.03
2022-12-24T04:20:35.351Z,100743.88
2022-12-24T04:25:34.102Z,100744.72
2022-12-24T04:30:33.105Z,100736.91
2022-12-24T04:35:33.295Z,100736.06
2022-12-24T04:40:34.412Z,100734.38
2022-12-24T04:45:33.279Z,100731.00
2022-12-24T04:50:33.832Z,100732.78
2022-12-24T04:55:32.753Z,100750.13
2022-12-24T05:00:31.527Z,100752.72
2022-12-24T05:05:31.062Z,100759.78
2022-12-24T05:10:32.046Z,100751.94
2022-12-24T05:15:33.471Z,100746.78
2022-12-24T05:20:52.292Z,100749.59
2022-12-24T05:26:09.835Z,100735.78
2022-12-24T05:31:16.035Z,100737.66
2022-12-24T05:36:15.235Z,100748.75
2022-12-24T05:41:15.511Z,100747.03
2022-12-24T05:46:16.354Z,100738.28
2022-12-24T05:51:18.907Z,100733.28
2022-12-24T05:56:21.451Z,100737.69
2022-12-24T06:01:21.698Z,100722.81
2022-12-24T06:06:22.897Z,100715.97
2022-12-24T06:11:24.991Z,100710.22
2022-12-24T06:16:25.601Z,100714.72
2022-12-24T06:21:24.526Z,100708.69
2022-12-24T06:26:26.419Z,100713.00
2022-12-24T06:31:25.429Z,100716.44
2022-12-24T06:36:26.149Z,100728.59
2022-12-24T06:41:28.842Z,100736.34
2022-12-24T06:46:28.013Z,100742.31
2022-12-24T06:51:27.097Z,100743.94
2022-12-24T06:56:27.436Z,100743.88
2022-12-24T07:01:26.310Z,100735.94
2022-12-24T07:06:27.130Z,100733.22
2022-12-24T07:11:27.612Z,100739.84
2022-12-24T07:16:29.517Z,100736.00
2022-12-24T07:21:28.501Z,100749.47
2022-12-24T07:26:28.831Z,100763.75
2022-12-24T07:31:29.627Z,100756.44
2022-12-24T07:36:29.324Z,100762.88
2022-12-24T07:41:37.930Z,100757.03
2022-12-24T07:46:40.519Z,100772.03
2022-12-24T07:51:39.669Z,100786.41
2022-12-24T07:56:39.798Z,100787.00
2022-12-24T08:01:38.748Z,100785.59
2022-12-24T08:06:37.694Z,100789.75
2022-12-24T08:11:36.466Z,100784.53
2022-12-24T08:16:36.738Z,100780.69
2022-12-24T08:21:35.583Z,100783.25
2022-12-24T08:26:34.518Z,100790.97
2022-12-24T08:31:36.640Z,100787.19
2022-12-24T08:36:40.011Z,100781.00
2022-12-24T08:41:38.957Z,100793.47
2022-12-24T08:46:38.641Z,100779.06
2022-12-24T08:51:38.869Z,100785.50
2022-12-24T08:56:38.066Z,100779.38
2022-12-24T09:01:37.344Z,100779.63
2022-12-24T09:06:36.736Z,100776.25
2022-12-24T09:11:37.217Z,100785.34
2022-12-24T09:16:36.049Z,100781.91
2022-12-24T09:21:34.861Z,100774.56
2022-12-24T09:26:33.631Z,100766.69
2022-12-24T09:31:34.211Z,100765.63
2022-12-24T09:36:33.159Z,100758.47
2022-12-24T09:41:42.980Z,100752.91
2022-12-24T09:46:48.859Z,100762.75
2022-12-24T09:51:52.445Z,100746.56
2022-12-24T09:56:51.497Z,100768.16
2022-12-24T10:01:53.600Z,100769.31
2022-12-24T10:07:02.740Z,100768.94
2022-12-24T10:12:09.732Z,100766.97
2022-12-24T10:17:26.404Z,100764.00
2022-12-24T10:22:34.493Z,100768.06
2022-12-24T10:27:38.282Z,100772.97
2022-12-24T10:32:39.432Z,100774.63
2022-12-24T10:37:38.324Z,100765.75
2022-12-24T10:42:50.363Z,100765.59
2022-12-24T10:47:58.142Z,100761.72
2022-12-24T10:53:05.841Z,100752.38
2022-12-24T10:58:08.799Z,100766.44
2022-12-24T11:03:25.437Z,100765.72
2022-12-24T11:08:26.240Z,100766.13
2022-12-24T11:13:38.839Z,100762.88
2022-12-24T11:18:52.105Z,100760.19
2022-12-24T11:23:54.650Z,100758.91
2022-12-24T11:29:17.217Z,100753.31
2022-12-24T11:34:26.663Z,100751.53
2022-12-24T11:39:27.158Z,100751.66
2022-12-24T11:44:28.354Z,100750.56
2022-12-24T11:49:33.113Z,100751.88
2022-12-24T11:54:40.424Z,100758.59
2022-12-24T11:59:44.302Z,100755.22
2022-12-24T12:04:47.933Z,100752.03
2022-12-24T12:09:51.323Z,100756.63
2022-12-24T12:14:53.442Z,100751.53
2022-12-24T12:20:01.273Z,100746.25
2022-12-24T12:25:02.296Z,100748.44
2022-12-24T12:30:04.304Z,100750.94
2022-12-24T12:35:15.520Z,100754.88
2022-12-24T12:40:16.467Z,100751.53
2022-12-24T12:45:35.144Z,100749.28
2022-12-24T12:50:44.244Z,100754.41
2022-12-24T12:55:52.674Z,100754.84
2022-12-24T13:00:56.095Z,100756.78
2022-12-24T13:06:30.957Z,100747.53
2022-12-24T13:11:44.275Z,100740.72
2022-12-24T13:17:15.252Z,100737.50
2022-12-24T13:22:17.443Z,100747.41
2022-12-24T13:27:20.578Z,100737.94
2022-12-24T13:32:49.382Z,100740.81
2022-12-24T13:37:51.321Z,100730.13
2022-12-24T13:43:12.525Z,100729.66
2022-12-24T13:48:40.467Z,100727.41
2022-12-24T13:53:43.269Z,100729.59
2022-12-24T13:58:45.730Z,100722.53
2022-12-24T14:03:47.892Z,100720.78
2022-12-24T14:08:49.184Z,100716.44
2022-12-24T14:14:27.377Z,100709.81
2022-12-24T14:19:37.060Z,100706.59
2022-12-24T14:24:38.973Z,100700.16
2022-12-24T14:29:47.908Z,100701.47
2022-12-24T14:34:46.738Z,100690.31
2022-12-24T14:39:57.003Z,100695.38
2022-12-24T14:45:08.648Z,100683.72
2022-12-24T14:50:35.793Z,100684.84
2022-12-24T14:55:41.737Z,100682.66
2022-12-24T15:00:44.842Z,100681.28
2022-12-24T15:05:44.343Z,100689.38
2022-12-24T15:10:45.534Z,100705.03
2022-12-24T15:15:52.270Z,100718.78
2022-12-24T15:21:04.124Z,100739.91
2022-12-24T15:26:27.933Z,100754.63
2022-12-24T15:31:29.968Z,100753.94
2022-12-24T15:36:32.779Z,100752.56
2022-12-24T15:41:38.412Z,100760.97
2022-12-24T15:46:40.009Z,100766.91
2022-12-24T15:51:46.239Z,100775.00
2022-12-24T15:56:49.204Z,100776.78
2022-12-24T16:01:50.425Z,100777.63
2022-12-24T16:06:54.572Z,100778.13
2022-12-24T16:11:59.475Z,100765.75
2022-12-24T16:17:03.066Z,100763.03
2022-12-24T16:22:24.230Z,100777.16
2022-12-24T16:27:23.211Z,100777.44
2022-12-24T16:32:32.070Z,100765.50
2022-12-24T16:37:31.072Z,100756.34
2022-12-24T16:42:47.169Z,100757.81
2022-12-24T16:47:47.475Z,100768.97
2022-12-24T16:52:46.443Z,100753.22
2022-12-24T16:57:45.653Z,100763.19
2022-12-24T17:02:44.561Z,100769.88
2022-12-24T17:07:46.201Z,100779.00
2022-12-24T17:12:45.212Z,100754.56
2022-12-24T17:17:44.012Z,100765.88
2022-12-24T17:22:42.929Z,100766.53
2022-12-24T17:27:44.595Z,100779.00
2022-12-24T17:32:43.584Z,100786.81
2022-12-24T17:37:46.615Z,100803.19
2022-12-24T17:42:46.868Z,100797.50
2022-12-24T17:47:45.934Z,100803.22
2022-12-24T17:52:44.749Z,100816.06
2022-12-24T17:57:43.559Z,100810.53
2022-12-24T18:02:44.017Z,100802.88
2022-12-24T18:07:42.942Z,100810.81
2022-12-24T18:12:41.795Z,100806.19
2022-12-24T18:17:40.814Z,100802.06
2022-12-24T18:22:40.973Z,100804.41
2022-12-24T18:27:39.881Z,100804.41
2022-12-24T18:32:39.390Z,100800.94
2022-12-24T18:37:38.544Z,100815.22
2022-12-24T18:42:41.936Z,100824.81
2022-12-24T18:47:40.651Z,100826.47
2022-12-24T18:52:39.373Z,100856.69
2022-12-24T18:57:39.562Z,100855.31
2022-12-24T19:02:38.545Z,100855.13
2022-12-24T19:07:37.492Z,100861.47
2022-12-24T19:12:36.227Z,100860.94
2022-12-24T19:17:36.359Z,100860.06
2022-12-24T19:22:35.169Z,100878.53
2022-12-24T19:27:33.972Z,100872.44
2022-12-24T19:32:38.570Z,100883.06
2022-12-24T19:37:38.739Z,100878.53
2022-12-24T19:42:40.892Z,100879.69
2022-12-24T19:47:39.800Z,100891.47
2022-12-24T19:52:40.041Z,100869.44
2022-12-24T19:57:39.661Z,100876.06
2022-12-24T20:02:38.622Z,100874.84
2022-12-24T20:07:37.476Z,100885.59
2022-12-24T20:12:37.994Z,100891.56
2022-12-24T20:17:36.747Z,100903.66
2022-12-24T20:22:35.625Z,100916.53
2022-12-24T20:27:34.333Z,100908.84
2022-12-24T20:32:34.534Z,100919.56
2022-12-24T20:37:38.080Z,100922.66
2022-12-24T20:42:39.449Z,100922.09
2022-12-24T20:47:40.121Z,100931.53
2022-12-24T20:52:38.880Z,100948.56
2022-12-24T20:57:37.719Z,100963.19
2022-12-24T21:02:36.589Z,100961.47
2022-12-24T21:07:39.073Z,100979.44
2022-12-24T21:12:50.429Z,100962.94
2022-12-24T21:17:50.403Z,100973.97
2022-12-24T21:22:58.868Z,100982.78
2022-12-24T21:27:59.613Z,100995.25
2022-12-24T21:32:59.492Z,100996.25
2022-12-24T21:37:59.706Z,101000.44
2022-12-24T21:42:58.587Z,100994.97
2022-12-24T21:48:20.348Z,100998.97
2022-12-24T21:53:38.012Z,100997.72
2022-12-24T21:58:37.908Z,101009.63
2022-12-24T22:03:37.164Z,101032.03
2022-12-24T22:09:00.622Z,101019.78
2022-12-24T22:13:59.546Z,101026.38
2022-12-24T22:19:03.804Z,101026.19
2022-12-24T22:24:07.157Z,101032.03
2022-12-24T22:29:06.214Z,101030.28
2022-12-24T22:34:06.091Z,101026.34
2022-12-24T22:39:06.552Z,101023.59
2022-12-24T22:44:05.757Z,101024.75
2022-12-24T22:49:05.397Z,101034.59
2022-12-24T22:54:04.195Z,101024.75
2022-12-24T22:59:05.918Z,101033.84
2022-12-24T23:04:06.267Z,101031.44
2022-12-24T23:09:07.144Z,101042.94
2022-12-24T23:14:24.907Z,101031.66
2022-12-24T23:19:23.750Z,101049.47
2022-12-24T23:24:22.853Z,101058.34
2022-12-24T23:29:23.273Z,101061.72
2022-12-24T23:34:22.077Z,101060.63
2022-12-24T23:39:21.040Z,101062.44
2022-12-24T23:44:20.149Z,101067.31
2022-12-24T23:49:20.408Z,101075.28
2022-12-24T23:54:21.872Z,101079.19
2022-12-24T23:59:24.897Z,101093.41
